createdAt,value
2019-02-07T00:01:19.650Z,73.34
2019-02-07T00:04:10.586Z,73.28
2019-02-07T00:06:54.685Z,73.33
2019-02-07T00:09:46.677Z,72.94
2019-02-07T00:12:37.599Z,73.19
2019-02-07T00:15:20.952Z,72.69
2019-02-07T00:18:11.965Z,72.25
2019-02-07T00:20:55.758Z,71.81
2019-02-07T00:23:47.278Z,71.99
2019-02-07T00:26:30.470Z,71.68
2019-02-07T00:29:21.748Z,71.34
2019-02-07T00:32:05.362Z,70.99
2019-02-07T00:35:09.182Z,70.09
2019-02-07T00:38:19.417Z,69.77
2019-02-07T00:41:22.726Z,69.55
2019-02-07T00:44:33.264Z,69.65
2019-02-07T00:47:35.761Z,69.65
2019-02-07T00:50:46.036Z,70.66
2019-02-07T00:53:48.670Z,70.32
2019-02-07T00:56:58.921Z,71.00
2019-02-07T01:00:02.074Z,72.32
2019-02-07T01:03:12.358Z,72.01
2019-02-07T01:06:17.320Z,72.79
2019-02-07T01:09:27.596Z,73.45
2019-02-07T01:12:30.215Z,73.58
2019-02-07T01:15:40.535Z,74.92
2019-02-07T01:18:43.232Z,75.16
2019-02-07T01:21:53.507Z,75.21
2019-02-07T01:24:56.245Z,76.77
2019-02-07T01:28:06.486Z,77.28
2019-02-07T01:31:09.678Z,78.53
2019-02-07T01:34:19.968Z,78.94
2019-02-07T01:37:22.468Z,79.46
2019-02-07T01:40:32.709Z,80.71
2019-02-07T01:43:35.946Z,80.43
2019-02-07T01:46:46.199Z,82.07
2019-02-07T01:49:49.279Z,82.84
2019-02-07T01:52:52.302Z,83.54
2019-02-07T01:56:02.554Z,84.71
2019-02-07T01:59:05.205Z,84.78
2019-02-07T02:02:15.516Z,85.25
2019-02-07T02:05:19.672Z,85.44
2019-02-07T02:08:23.354Z,86.25
2019-02-07T02:11:33.620Z,86.21
2019-02-07T02:14:36.863Z,85.19
2019-02-07T02:17:47.138Z,85.07
2019-02-07T02:20:50.320Z,85.98
2019-02-07T02:23:53.343Z,85.31
2019-02-07T02:27:03.568Z,85.17
2019-02-07T02:30:10.065Z,86.35
2019-02-07T02:33:20.335Z,85.68
2019-02-07T02:36:23.053Z,85.21
2019-02-07T02:39:25.527Z,85.54
2019-02-07T02:42:35.808Z,85.17
2019-02-07T02:45:38.695Z,84.93
2019-02-07T02:48:48.983Z,85.00
2019-02-07T02:51:52.247Z,85.09
2019-02-07T02:54:56.533Z,85.22
2019-02-07T02:58:07.320Z,85.83
2019-02-07T03:01:29.590Z,86.18
2019-02-07T03:04:44.155Z,85.56
2019-02-07T03:08:13.223Z,86.98
2019-02-07T03:11:27.185Z,87.42
2019-02-07T03:14:56.272Z,87.59
2019-02-07T03:18:11.778Z,87.94
2019-02-07T03:21:40.983Z,88.20
2019-02-07T03:25:03.247Z,89.02
2019-02-07T03:28:24.562Z,89.08
2019-02-07T03:31:46.868Z,89.61
2019-02-07T03:35:09.119Z,89.56
2019-02-07T03:38:38.276Z,89.67
2019-02-07T03:42:06.244Z,89.59
2019-02-07T03:48:50.210Z,88.90
2019-02-07T03:52:12.050Z,87.96
2019-02-07T03:55:33.402Z,87.83
2019-02-07T03:58:54.762Z,87.56
2019-02-07T04:02:16.177Z,86.67
2019-02-07T04:05:45.269Z,87.28
2019-02-07T04:09:07.329Z,86.03
2019-02-07T04:12:36.412Z,85.63
2019-02-07T04:15:58.475Z,85.78
2019-02-07T04:19:20.218Z,84.83
2019-02-07T04:22:42.287Z,83.96
2019-02-07T04:26:05.121Z,83.81
2019-02-07T04:29:22.764Z,83.59
2019-02-07T04:32:41.550Z,82.21
2019-02-07T04:36:10.701Z,82.20
2019-02-07T04:39:35.498Z,81.54
2019-02-07T04:43:25.065Z,81.64
2019-02-07T04:46:46.750Z,81.78
2019-02-07T04:50:15.801Z,80.86
2019-02-07T04:53:35.956Z,80.86
2019-02-07T04:57:05.043Z,80.95
2019-02-07T05:00:32.264Z,81.37
2019-02-07T05:04:01.377Z,80.71
2019-02-07T05:07:23.786Z,81.23
2019-02-07T05:10:34.019Z,81.13
2019-02-07T05:14:03.132Z,81.43
2019-02-07T05:17:25.263Z,81.47
2019-02-07T05:20:38.938Z,81.95
2019-02-07T05:23:56.176Z,82.75
2019-02-07T05:27:19.884Z,82.34
2019-02-07T05:30:49.251Z,82.52
2019-02-07T05:34:17.098Z,82.88
2019-02-07T05:37:49.726Z,82.63
2019-02-07T05:41:11.244Z,83.29
2019-02-07T05:44:32.817Z,82.71
2019-02-07T05:48:01.902Z,82.69
2019-02-07T05:51:23.993Z,82.91
2019-02-07T05:54:53.074Z,82.88
2019-02-07T05:58:14.537Z,82.96
2019-02-07T06:01:43.644Z,82.97
2019-02-07T06:05:11.740Z,82.95
2019-02-07T06:08:40.879Z,82.75
2019-02-07T06:12:02.496Z,82.63
2019-02-07T06:15:31.779Z,81.86
2019-02-07T06:18:53.569Z,81.74
2019-02-07T06:22:22.668Z,81.39
2019-02-07T06:25:44.064Z,81.18
2019-02-07T06:29:13.145Z,81.38
2019-02-07T06:32:38.149Z,80.95
2019-02-07T06:36:07.234Z,80.90
2019-02-07T06:39:29.992Z,80.25
2019-02-07T06:42:59.075Z,79.97
2019-02-07T06:46:20.755Z,79.71
2019-02-07T06:49:49.865Z,79.80
2019-02-07T06:53:04.148Z,79.94
2019-02-07T06:56:33.240Z,80.22
2019-02-07T06:59:54.664Z,80.28
2019-02-07T07:03:23.888Z,80.41
2019-02-07T07:06:34.223Z,80.23
2019-02-07T07:09:56.589Z,80.28
2019-02-07T07:13:16.645Z,80.66
2019-02-07T07:16:38.365Z,80.24
2019-02-07T07:20:07.446Z,80.34
2019-02-07T07:23:29.107Z,80.54
2019-02-07T07:26:51.151Z,80.87
2019-02-07T07:30:16.080Z,81.01
2019-02-07T07:33:45.203Z,81.35
2019-02-07T07:37:05.276Z,83.29
2019-02-07T07:40:34.358Z,83.90
2019-02-07T07:43:51.195Z,85.58
2019-02-07T07:47:22.002Z,86.37
2019-02-07T07:50:49.918Z,87.80
2019-02-07T07:54:20.570Z,88.29
2019-02-07T07:57:34.614Z,88.70
2019-02-07T08:01:03.712Z,88.82
2019-02-07T08:04:29.165Z,88.34
2019-02-07T08:07:49.512Z,88.03
2019-02-07T08:11:06.911Z,88.34
2019-02-07T08:14:35.648Z,88.50
2019-02-07T08:18:00.257Z,88.41
2019-02-07T08:21:22.094Z,88.60
2019-02-07T08:24:43.787Z,88.78
2019-02-07T08:28:06.165Z,88.11
2019-02-07T08:31:35.269Z,88.17
2019-02-07T08:34:56.866Z,88.41
2019-02-07T08:38:25.965Z,87.80
2019-02-07T08:41:37.816Z,86.92
2019-02-07T08:45:07.000Z,86.77
2019-02-07T08:48:26.891Z,87.03
2019-02-07T08:51:54.874Z,86.69
2019-02-07T08:55:24.476Z,86.06
2019-02-07T08:58:35.773Z,86.47
2019-02-07T09:02:04.896Z,86.12
2019-02-07T09:05:26.334Z,86.96
2019-02-07T09:08:40.393Z,86.46
2019-02-07T09:12:09.483Z,86.42
2019-02-07T09:15:28.496Z,85.91
2019-02-07T09:18:57.582Z,86.56
2019-02-07T09:22:25.265Z,86.77
2019-02-07T09:25:52.589Z,86.96
2019-02-07T09:29:14.759Z,87.05
2019-02-07T09:32:43.894Z,86.35
2019-02-07T09:36:05.969Z,85.95
2019-02-07T09:39:35.079Z,85.57
2019-02-07T09:42:56.721Z,84.85
2019-02-07T09:46:27.337Z,84.46
2019-02-07T09:49:48.866Z,83.88
2019-02-07T09:53:24.148Z,78.62
2019-02-07T09:56:47.306Z,75.05
2019-02-07T10:00:09.408Z,73.35
2019-02-07T10:03:27.713Z,72.96
2019-02-07T10:06:56.823Z,71.58
2019-02-07T10:10:19.131Z,68.58
2019-02-07T10:13:42.079Z,64.11
2019-02-07T10:17:03.432Z,61.81
2019-02-07T10:20:32.595Z,58.23
2019-02-07T10:23:50.564Z,57.63
2019-02-07T10:27:19.817Z,56.74
2019-02-07T10:30:33.199Z,55.76
2019-02-07T10:33:54.752Z,55.58
2019-02-07T10:37:23.919Z,58.29
2019-02-07T10:40:40.171Z,62.23
2019-02-07T10:44:10.991Z,63.82
2019-02-07T10:47:32.393Z,64.63
2019-02-07T10:51:03.222Z,64.20
2019-02-07T10:54:25.506Z,60.48
2019-02-07T10:57:54.935Z,61.72
2019-02-07T11:01:14.314Z,61.81
2019-02-07T11:04:43.813Z,60.79
2019-02-07T11:08:05.326Z,57.02
2019-02-07T11:11:31.367Z,55.87
2019-02-07T11:14:53.038Z,55.96
2019-02-07T11:18:14.761Z,56.68
2019-02-07T11:21:36.252Z,56.87
2019-02-07T11:24:58.254Z,57.24
2019-02-07T11:28:19.581Z,57.65
2019-02-07T11:31:40.319Z,57.86
2019-02-07T11:35:02.007Z,58.70
2019-02-07T11:38:23.339Z,58.62
2019-02-07T11:41:52.460Z,58.74
2019-02-07T11:45:14.870Z,59.01
2019-02-07T11:48:32.865Z,58.90
2019-02-07T11:51:54.233Z,58.30
2019-02-07T11:55:25.103Z,57.70
2019-02-07T11:58:46.904Z,55.96
2019-02-07T12:02:09.492Z,56.22
2019-02-07T12:05:38.725Z,55.34
2019-02-07T12:08:49.636Z,54.74
2019-02-07T12:12:18.764Z,56.60
2019-02-07T12:15:40.231Z,56.15
2019-02-07T12:19:17.649Z,57.18
2019-02-07T12:22:33.292Z,57.94
2019-02-07T12:26:02.426Z,57.99
2019-02-07T12:29:24.137Z,58.34
2019-02-07T12:35:46.441Z,56.79
2019-02-07T12:39:07.740Z,56.54
2019-02-07T12:42:29.431Z,55.05
2019-02-07T12:45:58.568Z,54.12
2019-02-07T12:49:28.920Z,53.53
2019-02-07T12:52:51.512Z,53.94
2019-02-07T12:56:12.917Z,53.39
2019-02-07T12:59:40.453Z,54.05
2019-02-07T13:03:09.573Z,55.13
2019-02-07T13:06:34.452Z,55.90
2019-02-07T13:09:58.704Z,55.81
2019-02-07T13:13:52.464Z,54.18
2019-02-07T13:17:14.107Z,53.75
2019-02-07T13:20:34.800Z,53.85
2019-02-07T13:24:03.973Z,53.85
2019-02-07T13:27:18.485Z,52.87
2019-02-07T13:30:47.563Z,53.06
2019-02-07T13:34:12.527Z,54.54
2019-02-07T13:37:41.714Z,54.50
2019-02-07T13:41:09.372Z,54.63
2019-02-07T13:44:36.755Z,52.60
2019-02-07T13:48:05.854Z,51.61
2019-02-07T13:51:28.020Z,51.86
2019-02-07T13:54:57.139Z,52.86
2019-02-07T13:58:19.259Z,53.54
2019-02-07T14:01:48.442Z,54.37
2019-02-07T14:05:10.215Z,53.59
2019-02-07T14:08:39.327Z,54.31
2019-02-07T14:12:01.457Z,53.87
2019-02-07T14:15:23.249Z,54.82
2019-02-07T14:18:52.431Z,54.26
2019-02-07T14:22:09.033Z,54.51
2019-02-07T14:25:30.759Z,54.18
2019-02-07T14:28:59.868Z,54.88
2019-02-07T14:32:04.104Z,54.81
2019-02-07T14:35:15.527Z,53.35
2019-02-07T14:38:18.933Z,52.03
2019-02-07T14:41:28.698Z,51.75
2019-02-07T14:44:23.449Z,52.84
2019-02-07T14:47:14.392Z,53.12
2019-02-07T14:49:57.684Z,54.15
2019-02-07T14:52:48.623Z,54.61
2019-02-07T14:55:34.165Z,55.11
2019-02-07T14:58:25.095Z,55.50
2019-02-07T15:01:08.580Z,55.51
2019-02-07T15:03:59.525Z,55.55
2019-02-07T15:06:43.744Z,55.52
2019-02-07T15:09:34.949Z,55.88
2019-02-07T15:12:18.359Z,55.58
2019-02-07T15:15:01.521Z,55.69
2019-02-07T15:17:52.439Z,55.68
2019-02-07T15:20:36.333Z,55.96
2019-02-07T15:23:27.252Z,55.24
2019-02-07T15:26:10.364Z,54.90
2019-02-07T15:29:01.276Z,54.93
2019-02-07T15:31:44.316Z,54.85
2019-02-07T15:34:35.951Z,54.73
2019-02-07T15:37:19.706Z,54.47
2019-02-07T15:40:51.853Z,54.95
2019-02-07T15:43:37.285Z,55.31
2019-02-07T15:46:28.304Z,55.59
2019-02-07T15:49:19.244Z,55.65
2019-02-07T15:52:23.907Z,55.27
2019-02-07T15:55:35.832Z,54.99
2019-02-07T15:58:21.928Z,55.45
2019-02-07T16:01:19.979Z,55.72
2019-02-07T16:04:25.696Z,55.94
2019-02-07T16:07:16.979Z,56.68
2019-02-07T16:10:21.750Z,56.81
2019-02-07T16:13:12.738Z,56.59
2019-02-07T16:15:56.272Z,56.76
2019-02-07T16:18:47.206Z,57.10
2019-02-07T16:21:30.427Z,57.34
2019-02-07T16:24:21.379Z,57.32
2019-02-07T16:27:04.790Z,57.52
2019-02-07T16:32:58.738Z,60.16
2019-02-07T16:35:49.802Z,61.83
2019-02-07T16:38:32.994Z,64.27
2019-02-07T16:41:23.948Z,68.31
2019-02-07T16:44:07.914Z,68.44
2019-02-07T16:46:58.853Z,68.86
2019-02-07T16:49:42.262Z,68.80
2019-02-07T16:52:33.220Z,68.45
2019-02-07T16:55:17.163Z,68.39
2019-02-07T16:58:08.092Z,68.67
2019-02-07T17:01:20.098Z,67.83
2019-02-07T17:04:03.531Z,68.24
2019-02-07T17:06:54.509Z,68.27
2019-02-07T17:09:42.186Z,67.98
2019-02-07T17:12:33.443Z,68.32
2019-02-07T17:15:18.014Z,68.48
2019-02-07T17:18:09.075Z,67.71
2019-02-07T17:20:52.468Z,68.13
2019-02-07T17:23:43.424Z,67.53
2019-02-07T17:26:26.517Z,67.14
2019-02-07T17:29:17.504Z,67.33
2019-02-07T17:32:00.826Z,66.41
2019-02-07T17:34:51.805Z,65.58
2019-02-07T17:37:35.662Z,66.01
2019-02-07T17:40:26.671Z,64.74
2019-02-07T17:43:17.622Z,64.65
2019-02-07T17:46:01.553Z,64.18
2019-02-07T17:48:52.523Z,64.07
2019-02-07T17:51:38.808Z,63.67
2019-02-07T17:54:28.845Z,64.16
2019-02-07T17:57:33.721Z,63.67
2019-02-07T18:00:47.652Z,63.94
2019-02-07T18:03:31.707Z,64.01
2019-02-07T18:06:22.687Z,64.18
2019-02-07T18:09:08.489Z,64.36
2019-02-07T18:11:51.771Z,64.19
2019-02-07T18:14:42.667Z,64.27
2019-02-07T18:17:26.554Z,64.62
2019-02-07T18:20:18.107Z,64.58
2019-02-07T18:23:01.244Z,64.24
2019-02-07T18:25:52.251Z,64.63
2019-02-07T18:28:38.179Z,64.61
2019-02-07T18:31:29.108Z,64.81
2019-02-07T18:34:12.566Z,64.91
2019-02-07T18:37:03.478Z,64.84
2019-02-07T18:40:09.818Z,65.09
2019-02-07T18:46:10.271Z,64.96
2019-02-07T18:49:01.617Z,65.41
2019-02-07T18:51:46.017Z,65.23
2019-02-07T18:54:37.031Z,65.21
2019-02-07T18:57:22.669Z,65.03
2019-02-07T19:04:09.897Z,65.32
2019-02-07T19:06:53.161Z,65.32
2019-02-07T19:09:46.173Z,65.34
2019-02-07T19:12:49.038Z,65.70
2019-02-07T19:15:52.848Z,65.62
2019-02-07T19:18:36.806Z,65.05
2019-02-07T19:21:28.013Z,65.91
2019-02-07T19:24:11.511Z,65.96
2019-02-07T19:27:02.441Z,66.18
2019-02-07T19:29:46.030Z,66.58
2019-02-07T19:32:36.943Z,66.16
2019-02-07T19:35:21.248Z,66.31
2019-02-07T19:38:12.161Z,66.82
2019-02-07T19:41:16.773Z,66.61
2019-02-07T19:44:07.721Z,67.08
2019-02-07T19:46:51.579Z,67.17
2019-02-07T19:49:42.543Z,67.36
2019-02-07T19:52:26.250Z,67.87
2019-02-07T19:55:29.561Z,67.94
2019-02-07T19:58:20.801Z,68.71
2019-02-07T20:01:05.550Z,68.87
2019-02-07T20:04:17.623Z,68.87
2019-02-07T20:07:01.585Z,69.24
2019-02-07T20:09:52.710Z,69.33
2019-02-07T20:12:36.637Z,69.96
2019-02-07T20:15:32.674Z,69.99
2019-02-07T20:18:16.716Z,70.16
2019-02-07T20:21:07.739Z,70.23
2019-02-07T20:23:51.676Z,70.79
2019-02-07T20:26:42.580Z,70.72
2019-02-07T20:29:26.368Z,70.96
2019-02-07T20:32:17.289Z,71.12
2019-02-07T20:35:00.725Z,71.06
2019-02-07T20:37:51.689Z,71.07
2019-02-07T20:40:35.285Z,71.30
2019-02-07T20:43:26.472Z,71.52
2019-02-07T20:46:09.813Z,71.43
2019-02-07T20:49:00.721Z,71.82
2019-02-07T20:51:44.359Z,71.83
2019-02-07T20:54:35.236Z,71.43
2019-02-07T20:57:18.382Z,71.48
2019-02-07T21:03:44.737Z,71.88
2019-02-07T21:06:28.766Z,72.27
2019-02-07T21:09:12.293Z,71.95
2019-02-07T21:12:03.201Z,72.04
2019-02-07T21:14:47.063Z,72.03
2019-02-07T21:17:37.980Z,72.15
2019-02-07T21:20:42.452Z,71.68
2019-02-07T21:23:33.366Z,71.67
2019-02-07T21:26:17.199Z,72.09
2019-02-07T21:29:10.431Z,72.07
2019-02-07T21:32:15.431Z,71.99
2019-02-07T21:35:07.002Z,72.49
2019-02-07T21:37:50.791Z,72.06
2019-02-07T21:40:41.703Z,72.12
2019-02-07T21:43:46.038Z,72.14
2019-02-07T21:46:36.937Z,72.34
2019-02-07T21:49:20.841Z,72.23
2019-02-07T21:52:11.813Z,72.20
2019-02-07T21:54:55.210Z,72.01
2019-02-07T21:57:46.314Z,72.30
2019-02-07T22:00:33.471Z,72.26
2019-02-07T22:03:24.434Z,72.52
2019-02-07T22:06:08.211Z,72.10
2019-02-07T22:08:59.407Z,72.26
2019-02-07T22:11:42.716Z,72.47
2019-02-07T22:14:33.639Z,72.25
2019-02-07T22:17:17.600Z,72.20
2019-02-07T22:20:12.356Z,72.30
2019-02-07T22:22:56.588Z,72.02
2019-02-07T22:25:47.484Z,72.09
2019-02-07T22:28:31.432Z,72.26
2019-02-07T22:31:22.400Z,72.00
2019-02-07T22:34:06.391Z,72.01
2019-02-07T22:36:57.425Z,72.47
2019-02-07T22:39:41.245Z,72.28
2019-02-07T22:42:32.246Z,71.95
2019-02-07T22:45:16.130Z,71.98
2019-02-07T22:48:08.392Z,72.22
2019-02-07T22:50:51.938Z,72.10
2019-02-07T22:53:42.847Z,72.57
2019-02-07T22:56:26.176Z,72.23
2019-02-07T22:59:17.079Z,72.58
2019-02-07T23:02:00.981Z,72.49
2019-02-07T23:04:51.857Z,72.30
2019-02-07T23:07:35.835Z,72.86
2019-02-07T23:10:27.069Z,72.64
2019-02-07T23:13:11.062Z,72.48
2019-02-07T23:16:01.975Z,72.31
2019-02-07T23:18:45.662Z,72.53
2019-02-07T23:21:36.556Z,72.48
2019-02-07T23:24:20.419Z,72.79
2019-02-07T23:27:11.760Z,72.74
2019-02-07T23:29:55.671Z,72.62
2019-02-07T23:32:46.635Z,72.74
2019-02-07T23:35:29.869Z,72.41
2019-02-07T23:38:20.828Z,72.79
2019-02-07T23:41:04.367Z,72.94
2019-02-07T23:43:55.280Z,73.00
2019-02-07T23:46:59.885Z,73.18
2019-02-07T23:49:43.259Z,73.00
2019-02-07T23:52:34.501Z,72.87
2019-02-07T23:55:17.890Z,72.82
2019-02-07T23:58:08.809Z,72.50
